Franklinton, LA

12:44 AM CST on December 18, 2014 (GMT -0600)
HADS BOGUE CHITTO NEAR FRANKLINTON 1S LA US USGS | Change Station
CLOSE
Current Station
Personal Weather Station
Location: Franklinton, LA
Elevation: 124 ft
Nearby Weather Stations

Elev 124 ft 30.84 °N, 90.16 °W | Updated 44 minutes ago

Clear
Clear
--
Feels Like --
N
2.0
Wind Variable Wind from North

Today
High -- | Low -- °F
--% Chance of Precip.
Yesterday
High -- | Low -- °F
Precip. -- in
6:52 AM 5:01 PM
Waning Crescent, 16% visible
Pressure 30.18 in
Visibility 10.0 miles
Clouds Clear
Dew Point Not available.
Humidity Not available.
Rainfall 0.00 in
Snow Depth Not available.
UV 0 out of 12
Pollen 4.90 out of 12
Air Quality Not available.
Flu Activity Not available.
METAR KMCB 180553Z AUTO 00000KT 10SM CLR 06/04 A3018 RMK AO2 SLP219 T00610039 10106 20056 401500006 58002

More Conditions Fewer Conditions

Pressure 30.18 in
Visibility 10.0 miles
Clouds Clear
Dew Point Not available.
Humidity Not available.
Rainfall 0.00 in
Snow Depth Not available.
UV 0 out of 12
Pollen 4.90 out of 12
Air Quality Not available.
Flu Activity Not available.
METAR KMCB 180553Z AUTO 00000KT 10SM CLR 06/04 A3018 RMK AO2 SLP219 T00610039 10106 20056 401500006 58002

More Conditions Fewer Conditions

10-Day Weather Forecast

Almanac

Astronomy

Dec. 18, 2014 Rise Set
Actual Time
Civil Twilight
Nautical Twilight
Astronomical Twilight
Moon
Length of Visible Light
Length of Day
Tomorrow will be .
, % of the Moon is Illuminated

Today's Extremes

State Highs State Lows

Community

WunderPhotos

Upload Photos

1,778,897 photos uploaded!

WunderBlogs® & News

Nearby

Air Quality

  Air Quality AQ Index Pollutant
Not available.

Snow Depth

Station Depth Elevation

Earthquake Activity

City Distance Mag. Time & Date
Minimum magnitude displayed is 2.5.

Coastal Water Temperatures

Place Temperature

Nearby Weather Stations